Time;durP1;ratioP1;P1;durP2;ratioP2;P2;SDS_P1;SDS_P2;PMS_P1;PMS_P2;Temp;Humidity;BMP_temperature;BMP_pressure;BME280_temperature;BME280_humidity;BME280_pressure;Samples;Min_cycle;Max_cycle;Signal;HPM_P1;HPM_P2
2023/10/03 00:02:00;;;;;;;;;10.50;10.00;;;;;18.61;100.00;99261.22;6218445;28;97913;-67
2023/10/03 00:05:07;;;;;;;;;7.00;7.00;;;;;18.62;100.00;99253.84;6218750;28;96746;-67
2023/10/03 00:08:11;;;;;;;;;8.00;7.40;;;;;18.63;100.00;99256.28;6237356;28;96322;-67
2023/10/03 00:11:19;;;;;;;;;8.00;8.00;;;;;18.59;100.00;99246.97;6218530;28;96940;-66
2023/10/03 00:14:22;;;;;;;;;8.40;8.40;;;;;18.53;100.00;99239.81;6220601;28;96801;-67
2023/10/03 00:17:27;;;;;;;;;8.25;8.00;;;;;18.52;100.00;99238.19;6237160;28;96443;-67
2023/10/03 00:20:30;;;;;;;;;8.50;8.25;;;;;18.43;100.00;99228.84;6236549;28;96337;-67
2023/10/03 00:23:33;;;;;;;;;10.00;9.60;;;;;18.38;100.00;99237.00;6201908;27;99714;-67
2023/10/03 00:26:36;;;;;;;;;5.75;5.00;;;;;18.33;100.00;99242.41;6241039;28;96459;-67
2023/10/03 00:29:40;;;;;;;;;8.00;7.60;;;;;18.31;100.00;99248.16;6205881;28;97280;-66
2023/10/03 00:32:45;;;;;;;;;6.00;6.00;;;;;18.30;100.00;99253.88;6240504;28;96288;-66
2023/10/03 00:35:50;;;;;;;;;7.00;7.00;;;;;18.27;100.00;99243.50;6240835;28;96369;-66
2023/10/03 00:38:53;;;;;;;;;8.00;7.80;;;;;18.19;100.00;99236.59;6240887;28;96278;-61
2023/10/03 00:41:57;;;;;;;;;8.00;7.00;;;;;18.15;100.00;99236.31;6221663;28;96711;-66
2023/10/03 00:45:00;;;;;;;;;7.00;7.00;;;;;18.13;100.00;99230.28;6222855;28;96505;-67
2023/10/03 00:48:06;;;;;;;;;8.00;8.00;;;;;18.10;100.00;99228.09;6222608;28;96327;-67
2023/10/03 00:51:11;;;;;;;;;9.00;8.00;;;;;18.10;100.00;99219.06;6223195;28;96518;-67
2023/10/03 00:54:14;;;;;;;;;7.40;7.40;;;;;18.10;100.00;99221.81;6240157;28;96269;-66
2023/10/03 00:57:17;;;;;;;;;7.00;7.00;;;;;18.05;100.00;99199.94;6220795;28;96628;-66
2023/10/03 01:00:22;;;;;;;;;10.40;9.00;;;;;18.03;100.00;99202.13;6220792;28;96489;-66
2023/10/03 01:03:31;;;;;;;;;7.00;7.00;;;;;18.02;100.00;99203.22;6254649;27;96334;-66
2023/10/03 01:06:35;;;;;;;;;9.60;8.60;;;;;17.97;100.00;99193.09;6239327;28;96468;-66
2023/10/03 01:09:42;;;;;;;;;8.00;8.00;;;;;17.96;100.00;99190.59;6220987;28;96688;-66
2023/10/03 01:12:46;;;;;;;;;7.00;7.00;;;;;17.95;100.00;99184.31;6253727;27;96509;-66
2023/10/03 01:15:51;;;;;;;;;7.00;7.00;;;;;17.93;100.00;99183.78;6238581;28;96364;-66
2023/10/03 01:18:59;;;;;;;;;10.40;9.00;;;;;17.91;100.00;99174.19;6222198;28;96272;-66
2023/10/03 01:22:04;;;;;;;;;10.00;9.00;;;;;17.94;100.00;99176.41;6240209;28;96837;-66
2023/10/03 01:25:12;;;;;;;;;8.00;7.00;;;;;17.92;100.00;99176.69;6239673;27;96360;-66
2023/10/03 01:28:15;;;;;;;;;8.00;7.00;;;;;17.87;100.00;99170.38;6240398;28;96322;-66
2023/10/03 01:31:19;;;;;;;;;8.25;8.25;;;;;17.94;100.00;99171.75;6242648;27;96437;-66
2023/10/03 01:34:22;;;;;;;;;11.00;9.00;;;;;18.01;100.00;99174.28;6221416;28;96882;-66
2023/10/03 01:37:26;;;;;;;;;9.40;9.00;;;;;18.02;100.00;99171.28;6239014;28;96399;-66
2023/10/03 01:40:31;;;;;;;;;7.00;6.60;;;;;18.05;100.00;99167.22;6203505;28;96841;-65
2023/10/03 01:43:38;;;;;;;;;10.00;9.00;;;;;18.07;100.00;99165.03;6220776;28;96455;-66
2023/10/03 01:46:42;;;;;;;;;9.50;8.00;;;;;18.09;100.00;99165.59;6221537;28;96954;-67
2023/10/03 01:49:48;;;;;;;;;8.00;7.00;;;;;18.04;100.00;99155.47;6222036;28;96414;-67
2023/10/03 01:52:52;;;;;;;;;7.00;7.00;;;;;18.04;100.00;99160.91;6221492;28;96497;-66
2023/10/03 01:55:57;;;;;;;;;8.75;7.75;;;;;18.00;100.00;99165.25;6221577;28;96642;-67
2023/10/03 01:59:00;;;;;;;;;5.00;4.00;;;;;17.98;100.00;99153.81;6221444;28;96385;-66
2023/10/03 02:02:04;;;;;;;;;9.40;7.40;;;;;17.96;100.00;99157.88;6203898;28;98576;-67
2023/10/03 02:05:09;;;;;;;;;7.00;7.00;;;;;17.94;100.00;99160.84;6221382;28;96264;-67
2023/10/03 02:08:15;;;;;;;;;6.60;6.20;;;;;17.89;100.00;99149.91;6239051;28;96279;-66
2023/10/03 02:11:26;;;;;;;;;7.00;7.00;;;;;17.84;100.00;99152.59;6239604;28;96260;-66
2023/10/03 02:14:30;;;;;;;;;7.33;5.67;;;;;17.79;100.00;99149.03;6238436;28;96295;-67
2023/10/03 02:17:34;;;;;;;;;8.00;8.00;;;;;17.75;100.00;99146.81;6239464;28;96308;-66
2023/10/03 02:20:47;;;;;;;;;6.00;6.00;;;;;17.73;100.00;99148.19;6238607;28;96475;-67
2023/10/03 02:23:50;;;;;;;;;7.00;6.60;;;;;17.67;100.00;99143.75;6238989;28;96924;-67
2023/10/03 02:26:56;;;;;;;;;7.00;6.80;;;;;17.65;100.00;99144.00;6220510;28;96365;-66
2023/10/03 02:29:59;;;;;;;;;7.80;6.80;;;;;17.65;100.00;99137.75;6221205;28;96335;-67
2023/10/03 02:33:10;;;;;;;;;9.20;7.20;;;;;17.63;100.00;99137.19;6233452;28;96557;-66
2023/10/03 02:36:15;;;;;;;;;8.00;7.00;;;;;17.64;100.00;99141.56;6221040;28;96267;-67
2023/10/03 02:39:25;;;;;;;;;7.60;7.00;;;;;17.64;100.00;99138.84;6221026;28;96692;-66
2023/10/03 02:42:30;;;;;;;;;7.00;6.00;;;;;17.64;100.00;99130.66;6219832;28;96342;-65
2023/10/03 02:45:34;;;;;;;;;7.40;5.80;;;;;17.61;100.00;99128.44;6214023;28;98772;-66
2023/10/03 02:48:38;;;;;;;;;7.50;6.25;;;;;17.59;100.00;99130.63;6233151;27;96353;-67
2023/10/03 02:51:42;;;;;;;;;11.00;9.40;;;;;17.57;100.00;99127.28;6237975;28;96394;-66
2023/10/03 02:54:45;;;;;;;;;8.00;7.40;;;;;17.58;100.00;99128.94;6237604;28;96307;-66
2023/10/03 02:57:50;;;;;;;;;8.40;7.00;;;;;17.57;100.00;99121.84;6224831;28;96983;-65
2023/10/03 03:00:57;;;;;;;;;10.00;8.60;;;;;17.55;100.00;99121.28;6205230;27;98865;-66
2023/10/03 03:04:01;;;;;;;;;9.40;9.40;;;;;17.55;100.00;99121.28;6226619;27;96875;-66
2023/10/03 03:07:06;;;;;;;;;10.40;8.40;;;;;17.52;100.00;99113.63;6232179;28;97304;-66
2023/10/03 03:10:12;;;;;;;;;10.00;8.00;;;;;17.50;100.00;99113.06;6234675;27;97410;-65
2023/10/03 03:13:18;;;;;;;;;7.75;7.75;;;;;17.45;100.00;99113.00;6217478;28;97013;-66
2023/10/03 03:16:21;;;;;;;;;7.00;6.00;;;;;17.39;100.00;99112.19;6223846;27;96459;-66
2023/10/03 03:19:26;;;;;;;;;9.00;7.25;;;;;17.30;100.00;99102.81;6219419;28;96959;-66
2023/10/03 03:22:29;;;;;;;;;8.00;7.00;;;;;17.29;100.00;99106.63;6224746;27;99195;-67
2023/10/03 03:25:37;;;;;;;;;8.25;7.00;;;;;17.25;100.00;99111.75;6203738;28;98415;-66
2023/10/03 03:28:43;;;;;;;;;8.00;7.60;;;;;17.23;100.00;99116.66;6219601;28;96398;-67
2023/10/03 03:31:48;;;;;;;;;7.00;7.00;;;;;17.21;100.00;99109.81;6232639;28;96841;-67
2023/10/03 03:34:52;;;;;;;;;7.80;7.80;;;;;17.20;100.00;99100.81;6234846;28;96873;-66
2023/10/03 03:37:57;;;;;;;;;8.60;8.60;;;;;17.20;100.00;99106.28;6230948;28;97470;-66
2023/10/03 03:41:01;;;;;;;;;7.20;7.00;;;;;17.19;100.00;99106.56;6234109;28;96468;-66
2023/10/03 03:44:11;;;;;;;;;8.40;7.00;;;;;17.18;100.00;99103.00;6218844;28;96306;-67
2023/10/03 03:47:14;;;;;;;;;10.40;9.40;;;;;17.15;100.00;99103.50;6233707;28;96820;-66
2023/10/03 03:50:17;;;;;;;;;10.00;9.00;;;;;17.17;100.00;99103.25;6215105;28;98394;-65
2023/10/03 03:53:21;;;;;;;;;8.00;7.75;;;;;17.19;100.00;99098.38;6199829;28;99403;-66
2023/10/03 03:56:24;;;;;;;;;8.00;7.00;;;;;17.20;100.00;99095.38;6232776;28;96645;-66
2023/10/03 03:59:29;;;;;;;;;10.00;7.00;;;;;17.17;100.00;99100.53;6201998;28;98456;-66
2023/10/03 04:02:32;;;;;;;;;9.00;8.80;;;;;17.13;100.00;99094.78;6221645;28;96895;-67
2023/10/03 04:05:36;;;;;;;;;8.00;7.60;;;;;17.11;100.00;99087.94;6233954;28;98979;-66
2023/10/03 04:08:40;;;;;;;;;8.00;8.00;;;;;17.09;100.00;99099.13;6230063;28;96654;-67
2023/10/03 04:12:03;;;;;;;;;9.20;7.60;;;;;17.08;100.00;99092.00;6236836;28;96309;-67
2023/10/03 04:15:11;;;;;;;;;8.20;6.80;;;;;17.09;100.00;99084.66;6217801;28;96714;-66
2023/10/03 04:18:15;;;;;;;;;11.00;9.00;;;;;17.06;100.00;99082.44;6234154;28;96452;-61
2023/10/03 04:21:19;;;;;;;;;9.00;9.00;;;;;17.05;100.00;99073.47;6235503;28;96428;-67
2023/10/03 04:24:23;;;;;;;;;11.00;9.00;;;;;17.00;100.00;99067.97;6215764;28;97323;-65
2023/10/03 04:27:26;;;;;;;;;7.00;7.00;;;;;16.98;100.00;99072.84;6235915;28;96522;-66
2023/10/03 04:30:30;;;;;;;;;10.00;8.40;;;;;16.95;100.00;99070.66;6234195;27;96551;-66
2023/10/03 04:33:34;;;;;;;;;6.60;6.60;;;;;16.97;100.00;99070.38;6238248;28;96894;-65
2023/10/03 04:36:37;;;;;;;;;9.00;9.00;;;;;16.99;100.00;99073.69;6237884;28;97290;-66
2023/10/03 04:39:41;;;;;;;;;11.00;10.50;;;;;17.01;100.00;99072.31;6238228;28;97076;-67
2023/10/03 04:42:45;;;;;;;;;13.80;12.40;;;;;17.04;100.00;99069.09;6217691;28;97338;-66
2023/10/03 04:45:51;;;;;;;;;13.00;13.00;;;;;17.05;100.00;99065.31;6233802;28;96543;-66
2023/10/03 04:48:54;;;;;;;;;9.25;9.00;;;;;17.04;100.00;99063.66;6212358;28;97085;-68
2023/10/03 04:51:58;;;;;;;;;11.00;10.00;;;;;16.97;100.00;99063.03;6246621;27;97635;-65
2023/10/03 04:55:02;;;;;;;;;7.60;7.60;;;;;16.86;100.00;99067.56;6213570;27;96466;-66
2023/10/03 04:58:05;;;;;;;;;10.40;9.40;;;;;16.85;100.00;99060.50;6219195;28;96536;-63
2023/10/03 05:01:10;;;;;;;;;10.75;8.75;;;;;16.87;100.00;99065.66;6226479;28;96471;-66
2023/10/03 05:04:14;;;;;;;;;13.50;10.00;;;;;16.91;100.00;99055.09;6236750;28;96452;-66
2023/10/03 05:07:18;;;;;;;;;10.60;9.60;;;;;16.95;100.00;99054.31;6236610;28;96787;-66
2023/10/03 05:10:21;;;;;;;;;12.00;10.00;;;;;17.02;100.00;99054.09;6234902;27;96923;-66
2023/10/03 05:13:24;;;;;;;;;13.75;12.00;;;;;17.12;100.00;99060.44;6236265;28;96558;-65
2023/10/03 05:16:29;;;;;;;;;13.80;13.00;;;;;17.23;100.00;99045.81;6236266;28;97090;-66
2023/10/03 05:19:33;;;;;;;;;12.00;11.00;;;;;17.32;100.00;99044.25;6212010;28;96847;-66
2023/10/03 05:22:36;;;;;;;;;12.60;11.60;;;;;17.45;100.00;99044.88;6228904;28;96420;-66
2023/10/03 05:25:42;;;;;;;;;10.00;9.00;;;;;17.55;100.00;99050.41;6218666;28;96674;-62
2023/10/03 05:28:46;;;;;;;;;13.00;12.00;;;;;17.67;100.00;99049.16;6236255;28;97205;-66
2023/10/03 05:31:51;;;;;;;;;13.00;11.00;;;;;17.79;100.00;99054.38;6239532;28;96316;-66
2023/10/03 05:34:54;;;;;;;;;10.20;8.80;;;;;17.94;100.00;99049.00;6236967;28;96568;-65
2023/10/03 05:37:57;;;;;;;;;15.00;13.00;;;;;18.09;100.00;99051.81;6220896;28;96428;-66
2023/10/03 05:41:02;;;;;;;;;11.75;11.00;;;;;18.22;100.00;99047.78;6237387;28;96933;-66
2023/10/03 05:44:12;;;;;;;;;11.80;11.00;;;;;18.43;100.00;99051.38;6219585;28;96424;-66
2023/10/03 05:47:16;;;;;;;;;12.00;11.00;;;;;18.60;100.00;99039.19;6220092;28;96462;-67
2023/10/03 05:50:21;;;;;;;;;14.50;12.00;;;;;18.79;100.00;99036.75;6239247;28;96407;-66
2023/10/03 05:53:25;;;;;;;;;12.00;11.00;;;;;19.01;100.00;99048.25;6238372;28;96827;-66
2023/10/03 05:56:28;;;;;;;;;12.00;11.00;;;;;19.25;100.00;99045.00;6221148;28;96478;-67
2023/10/03 05:59:31;;;;;;;;;11.00;10.00;;;;;19.46;100.00;99043.88;6238834;28;96339;-66
2023/10/03 06:02:38;;;;;;;;;14.00;12.00;;;;;19.70;100.00;99050.41;6239070;28;96492;-67
2023/10/03 06:05:42;;;;;;;;;12.00;12.00;;;;;19.90;100.00;99031.19;6239322;28;96604;-67
2023/10/03 06:08:48;;;;;;;;;11.00;10.00;;;;;20.23;100.00;99048.84;6238906;28;96421;-66
2023/10/03 06:11:53;;;;;;;;;12.40;12.00;;;;;20.57;100.00;99053.66;6203738;28;96729;-67
2023/10/03 06:15:00;;;;;;;;;12.00;11.00;;;;;20.86;100.00;99045.53;6219890;28;96663;-66
2023/10/03 06:18:05;;;;;;;;;13.00;9.00;;;;;21.19;100.00;99052.97;6238609;28;96908;-66
2023/10/03 06:21:08;;;;;;;;;14.00;12.00;;;;;21.54;100.00;99043.63;6238958;28;96962;-67
2023/10/03 06:24:14;;;;;;;;;13.00;11.00;;;;;22.09;100.00;99050.44;6238858;27;96389;-66
2023/10/03 06:27:18;;;;;;;;;12.80;12.00;;;;;22.61;100.00;99055.00;6202716;28;98406;-66
2023/10/03 06:30:22;;;;;;;;;13.00;11.40;;;;;23.20;100.00;99056.34;6237563;28;97003;-66
2023/10/03 06:33:27;;;;;;;;;13.60;12.40;;;;;23.81;100.00;99052.53;6218965;28;96564;-66
2023/10/03 06:36:31;;;;;;;;;12.00;11.40;;;;;24.61;100.00;99055.59;6236249;28;97594;-66
2023/10/03 06:39:34;;;;;;;;;13.00;13.00;;;;;25.82;100.00;99069.22;6236028;28;96589;-66
2023/10/03 06:42:38;;;;;;;;;14.00;12.40;;;;;27.37;100.00;99068.75;6236226;28;96484;-66
2023/10/03 06:45:42;;;;;;;;;14.00;12.00;;;;;28.62;100.00;99075.69;6235915;28;96545;-66
2023/10/03 06:48:47;;;;;;;;;12.60;11.60;;;;;29.03;100.00;99066.63;6217524;28;97240;-66
2023/10/03 06:51:52;;;;;;;;;14.00;13.00;;;;;29.35;100.00;99073.38;6230220;28;97045;-66
2023/10/03 06:54:55;;;;;;;;;13.00;12.40;;;;;29.85;100.00;99065.66;6238050;27;96975;-67
2023/10/03 06:57:59;;;;;;;;;13.00;13.00;;;;;30.53;100.00;99061.25;6238187;28;96801;-67
2023/10/03 07:01:03;;;;;;;;;15.00;14.00;;;;;31.28;100.00;99064.31;6237844;28;96537;-67
2023/10/03 07:04:08;;;;;;;;;18.00;16.00;;;;;32.32;100.00;99057.56;6238318;28;96774;-67
2023/10/03 07:07:11;;;;;;;;;16.25;15.00;;;;;33.00;96.92;99054.38;6237836;28;96466;-67
2023/10/03 07:10:15;;;;;;;;;15.20;13.20;;;;;33.39;94.32;99055.22;6219837;28;96971;-67
2023/10/03 07:13:18;;;;;;;;;14.50;13.00;;;;;33.84;92.52;99055.31;6238042;28;96344;-67
2023/10/03 07:16:21;;;;;;;;;11.00;11.00;;;;;34.45;91.23;99050.78;6238185;28;96337;-67
2023/10/03 07:19:26;;;;;;;;;11.40;10.00;;;;;35.03;84.57;99046.44;6219867;28;97650;-67
2023/10/03 07:22:29;;;;;;;;;15.60;13.00;;;;;35.53;84.18;99047.84;6219264;27;96338;-67
2023/10/03 07:25:32;;;;;;;;;12.00;11.40;;;;;35.99;79.56;99051.16;6218447;28;99121;-68
2023/10/03 07:28:38;;;;;;;;;11.00;10.00;;;;;36.28;78.26;99057.06;6219742;28;96399;-68
2023/10/03 07:31:42;;;;;;;;;12.00;11.00;;;;;36.49;76.77;99054.41;6219159;28;96635;-68
2023/10/03 07:34:46;;;;;;;;;9.40;9.00;;;;;36.83;72.86;99044.63;6235250;28;96470;-68
2023/10/03 07:37:51;;;;;;;;;12.00;11.60;;;;;37.20;72.68;99043.63;6219069;28;98394;-68
2023/10/03 07:40:55;;;;;;;;;12.40;11.00;;;;;37.57;70.23;99049.81;6218868;28;98466;-68
2023/10/03 07:43:58;;;;;;;;;11.00;10.00;;;;;37.93;67.05;99038.59;6219482;28;96357;-68
2023/10/03 07:47:03;;;;;;;;;9.00;9.00;;;;;38.23;68.34;99041.84;6218512;28;98690;-68
2023/10/03 07:50:11;;;;;;;;;11.00;11.00;;;;;38.54;59.02;99037.44;6237835;28;96596;-68
2023/10/03 07:53:16;;;;;;;;;12.50;11.25;;;;;38.93;60.82;99032.53;6237400;27;96363;-68
2023/10/03 07:56:25;;;;;;;;;13.00;12.00;;;;;39.21;58.26;99034.44;6219131;28;96473;-67
2023/10/03 07:59:30;;;;;;;;;9.80;9.40;;;;;39.38;52.42;99025.13;6219788;28;96404;-68
2023/10/03 08:02:34;;;;;;;;;7.40;6.40;;;;;39.27;52.81;99017.91;6218763;28;96654;-68
2023/10/03 08:05:39;;;;;;;;;8.00;8.00;;;;;38.84;52.02;99026.50;6237295;28;96373;-68
2023/10/03 08:08:42;;;;;;;;;7.00;6.40;;;;;38.68;54.37;99017.69;6202142;28;96709;-68
2023/10/03 08:11:47;;;;;;;;;10.00;9.00;;;;;38.70;53.11;99008.84;6219592;28;96877;-68
2023/10/03 08:14:52;;;;;;;;;8.40;7.40;;;;;39.05;54.44;98997.44;6202022;28;96698;-67
2023/10/03 08:17:57;;;;;;;;;6.00;6.00;;;;;39.03;44.75;98994.25;6202350;28;99233;-67
2023/10/03 08:21:03;;;;;;;;;4.40;4.00;;;;;38.89;46.91;98997.94;6237017;28;96820;-67
2023/10/03 08:24:14;;;;;;;;;5.20;5.20;;;;;39.18;45.62;98990.16;6235959;28;96287;-67
2023/10/03 08:27:19;;;;;;;;;4.50;4.50;;;;;39.02;43.10;98987.00;6236679;28;96506;-67
2023/10/03 08:30:29;;;;;;;;;5.00;4.00;;;;;38.87;45.32;98986.22;6233590;28;96261;-67
2023/10/03 08:33:36;;;;;;;;;5.00;4.40;;;;;38.67;43.86;98987.09;6216829;28;96600;-67
2023/10/03 08:36:41;;;;;;;;;6.00;6.00;;;;;38.79;45.25;98981.03;6216688;28;96493;-67
2023/10/03 08:39:45;;;;;;;;;6.00;6.00;;;;;39.21;47.29;98975.22;6234587;28;96482;-67
2023/10/03 08:42:52;;;;;;;;;6.00;5.60;;;;;39.27;43.60;98956.66;6215497;28;96663;-67
2023/10/03 08:45:58;;;;;;;;;7.40;7.00;;;;;39.59;47.66;98964.91;6216409;28;97229;-66
2023/10/03 08:49:08;;;;;;;;;5.60;4.60;;;;;39.90;46.34;98954.63;6220436;28;96626;-67
2023/10/03 08:52:13;;;;;;;;;5.00;4.20;;;;;38.70;43.88;98831.31;6221610;28;96426;-68
2023/10/03 08:55:19;;;;;;;;;4.00;4.00;;;;;39.46;43.60;98948.91;6239949;28;96857;-68
2023/10/03 08:58:25;;;;;;;;;6.00;5.20;;;;;38.97;43.69;98945.13;6222325;28;96339;-68
2023/10/03 09:01:33;;;;;;;;;6.00;6.00;;;;;39.07;43.42;98946.28;6223301;28;97137;-68
2023/10/03 09:04:39;;;;;;;;;5.60;5.00;;;;;39.05;45.95;98940.28;6205016;28;97239;-67
2023/10/03 09:07:44;;;;;;;;;5.00;5.00;;;;;39.19;43.47;98940.19;6221599;28;96323;-67
2023/10/03 09:10:55;;;;;;;;;4.40;4.40;;;;;39.34;44.56;98941.75;6237170;28;96718;-67
2023/10/03 09:13:59;;;;;;;;;4.25;4.25;;;;;39.43;43.17;98936.44;6221033;28;97050;-67
2023/10/03 09:17:03;;;;;;;;;5.40;5.40;;;;;39.20;43.99;98925.66;6220850;28;96510;-67
2023/10/03 09:20:08;;;;;;;;;5.00;4.00;;;;;39.65;41.79;98937.06;6240115;28;96401;-67
2023/10/03 09:23:17;;;;;;;;;6.20;6.00;;;;;39.69;42.30;98920.91;6240054;28;96350;-67
2023/10/03 09:26:21;;;;;;;;;6.00;6.00;;;;;39.47;41.21;98925.13;6255732;27;96344;-67
2023/10/03 09:29:32;;;;;;;;;7.80;6.80;;;;;39.27;41.93;98924.81;6239565;28;97523;-67
2023/10/03 09:32:39;;;;;;;;;4.00;4.00;;;;;38.66;44.31;98920.69;6239391;28;96665;-68
2023/10/03 09:35:57;;;;;;;;;6.80;6.40;;;;;38.52;43.68;98929.97;6221047;28;97254;-67
2023/10/03 09:39:02;;;;;;;;;7.00;6.00;;;;;38.54;43.85;98905.84;6255757;27;96429;-67
2023/10/03 09:42:07;;;;;;;;;6.00;5.40;;;;;38.58;44.92;98908.63;6239562;28;96598;-67
2023/10/03 09:45:16;;;;;;;;;7.00;6.00;;;;;38.67;45.99;98916.63;6239433;28;96497;-67
2023/10/03 09:48:24;;;;;;;;;8.00;7.00;;;;;38.78;43.12;98900.50;6204753;28;96695;-67
2023/10/03 09:51:46;;;;;;;;;6.50;6.00;;;;;38.59;43.52;98901.78;6238878;28;96535;-67
2023/10/03 09:54:53;;;;;;;;;6.40;5.00;;;;;38.25;46.53;98898.66;6236744;28;96935;-67
2023/10/03 09:57:59;;;;;;;;;6.40;5.60;;;;;38.47;45.14;98905.03;6238520;27;96537;-67
2023/10/03 10:01:06;;;;;;;;;5.00;4.00;;;;;38.57;45.07;98896.56;6238939;28;96390;-68
2023/10/03 10:04:10;;;;;;;;;7.60;6.60;;;;;38.62;44.46;98900.97;6217684;28;96872;-68
2023/10/03 10:07:29;;;;;;;;;6.00;5.00;;;;;38.54;44.61;98882.50;6243887;27;96460;-67
2023/10/03 10:10:35;;;;;;;;;6.00;6.00;;;;;38.17;47.56;98890.63;6248366;27;96659;-67
2023/10/03 10:13:44;;;;;;;;;5.00;4.00;;;;;38.23;48.90;98883.34;6239428;28;96513;-67
2023/10/03 10:17:16;;;;;;;;;7.00;6.00;;;;;38.40;48.26;98865.63;6239281;28;96646;-67
2023/10/03 10:20:27;;;;;;;;;6.00;5.00;;;;;38.42;46.62;98866.81;6220656;28;96702;-67
2023/10/03 10:23:35;;;;;;;;;5.40;4.00;;;;;38.51;45.89;98870.00;6239882;28;96292;-68
2023/10/03 10:26:40;;;;;;;;;5.40;5.40;;;;;38.44;45.94;98867.25;6238847;28;96513;-68
2023/10/03 10:29:58;;;;;;;;;7.00;6.00;;;;;38.72;45.43;98863.47;6237556;28;97558;-68
2023/10/03 10:33:25;;;;;;;;;6.00;5.00;;;;;39.09;46.79;98854.44;6236375;28;96757;-67
2023/10/03 10:36:57;;;;;;;;;4.25;3.75;;;;;38.99;43.70;98864.59;6235674;28;96583;-67
2023/10/03 10:43:27;;;;;;;;;6.40;6.40;;;;;38.96;47.92;98851.28;6234216;28;97562;-67
2023/10/03 10:46:34;;;;;;;;;6.00;5.50;;;;;39.04;46.51;98851.25;6217117;28;96890;-68
2023/10/03 10:49:57;;;;;;;;;6.00;5.00;;;;;39.19;46.23;98842.28;6219090;28;97895;-68
2023/10/03 10:53:20;;;;;;;;;5.67;5.00;;;;;39.65;46.66;98835.47;6235919;28;97096;-68
2023/10/03 10:56:28;;;;;;;;;4.00;4.00;;;;;40.23;41.90;98845.81;6229235;28;96670;-67
2023/10/03 10:59:35;;;;;;;;;5.00;4.40;;;;;40.45;41.90;98830.22;6230223;28;96767;-66
2023/10/03 11:02:43;;;;;;;;;10.00;7.00;;;;;40.64;41.20;98831.59;6232110;28;96492;-68
2023/10/03 11:05:50;;;;;;;;;7.00;6.00;;;;;40.53;39.21;98828.88;6234931;28;96994;-67
2023/10/03 11:08:54;;;;;;;;;6.00;5.00;;;;;40.52;39.67;98823.66;6214863;28;96935;-68
2023/10/03 11:11:57;;;;;;;;;5.00;5.00;;;;;40.89;38.83;98819.94;6224529;28;97012;-67
2023/10/03 11:15:05;;;;;;;;;5.00;4.60;;;;;41.21;39.52;98820.25;6235782;28;96510;-67
2023/10/03 11:18:08;;;;;;;;;6.00;5.40;;;;;41.33;35.31;98816.84;6234125;28;96880;-66
2023/10/03 11:21:12;;;;;;;;;5.60;5.00;;;;;41.55;36.22;98816.50;6237988;28;96884;-67
2023/10/03 11:24:17;;;;;;;;;4.00;4.00;;;;;41.26;37.54;98814.13;6235735;28;96350;-67
2023/10/03 11:27:26;;;;;;;;;4.50;4.00;;;;;41.22;38.03;98821.06;6211260;28;96636;-68
2023/10/03 11:30:31;;;;;;;;;6.00;4.40;;;;;41.14;38.23;98808.28;6212113;28;97386;-68
2023/10/03 11:33:42;;;;;;;;;6.40;5.00;;;;;40.98;37.18;98804.03;6229821;28;96465;-68
2023/10/03 11:36:46;;;;;;;;;6.80;5.80;;;;;41.25;39.16;98801.19;6219597;28;96582;-68
2023/10/03 11:39:50;;;;;;;;;8.00;8.00;;;;;41.45;36.28;98787.16;6223796;28;96540;-68
2023/10/03 11:42:55;;;;;;;;;5.00;5.00;;;;;41.42;34.72;98788.00;6215127;28;96648;-70
2023/10/03 11:46:00;;;;;;;;;7.00;7.00;;;;;41.01;35.62;98782.56;6219137;28;96417;-68
2023/10/03 11:49:03;;;;;;;;;5.40;5.40;;;;;40.77;37.82;98776.09;6234008;28;97177;-69
2023/10/03 11:52:08;;;;;;;;;7.00;6.75;;;;;40.91;36.42;98772.22;6236427;28;96481;-68
2023/10/03 11:55:11;;;;;;;;;6.60;6.00;;;;;41.29;35.94;98776.50;6235976;28;96697;-68
2023/10/03 11:58:15;;;;;;;;;8.40;7.40;;;;;41.59;36.07;98763.47;6237691;28;96346;-69
2023/10/03 12:01:20;;;;;;;;;5.00;4.40;;;;;41.71;34.91;98763.63;6237055;28;96501;-69
2023/10/03 12:04:23;;;;;;;;;7.60;6.20;;;;;41.89;35.02;98754.81;6237422;28;96360;-68
2023/10/03 12:07:26;;;;;;;;;6.00;5.40;;;;;41.58;34.93;98754.19;6237454;28;96261;-69
2023/10/03 12:10:34;;;;;;;;;7.75;7.00;;;;;41.30;35.75;98752.63;6202492;28;96828;-69
2023/10/03 12:13:38;;;;;;;;;9.60;7.00;;;;;40.80;38.94;98741.31;6236293;28;96635;-69
2023/10/03 12:16:45;;;;;;;;;5.00;4.40;;;;;40.62;40.16;98738.75;6233725;28;96637;-68
2023/10/03 12:19:49;;;;;;;;;8.60;7.00;;;;;39.81;38.56;98722.84;6236435;27;97250;-69
2023/10/03 12:22:54;;;;;;;;;4.75;4.75;;;;;39.46;43.05;98723.22;6220398;27;96687;-68
2023/10/03 12:25:57;;;;;;;;;37.50;30.75;;;;;38.99;42.50;98714.38;6238894;28;96518;-69
2023/10/03 12:29:14;;;;;;;;;12.50;11.50;;;;;38.69;47.41;98714.16;6239097;28;96616;-69
2023/10/03 12:32:18;;;;;;;;;8.00;7.00;;;;;38.12;46.37;98704.00;6221639;28;96706;-68
2023/10/03 12:35:21;;;;;;;;;8.00;7.00;;;;;37.77;46.96;98712.59;6237378;28;96439;-67
2023/10/03 12:38:25;;;;;;;;;111.75;88.50;;;;;37.30;55.08;98705.44;6238086;28;97621;-67
2023/10/03 12:41:30;;;;;;;;;7.00;6.00;;;;;37.04;54.32;98701.03;6210065;28;96802;-66
2023/10/03 12:44:33;;;;;;;;;9.00;8.00;;;;;36.69;54.90;98701.84;6236787;28;96569;-67
2023/10/03 12:47:39;;;;;;;;;12.40;11.40;;;;;36.52;60.26;98699.75;6219076;28;98352;-68
2023/10/03 12:50:44;;;;;;;;;7.80;7.80;;;;;36.12;59.36;98703.66;6238786;28;96279;-68
2023/10/03 12:53:48;;;;;;;;;4.50;4.50;;;;;35.54;63.28;98689.75;6220018;28;96830;-68
2023/10/03 12:56:51;;;;;;;;;10.00;9.00;;;;;35.47;66.91;98684.91;6212970;28;96770;-69
2023/10/03 12:59:54;;;;;;;;;9.00;8.00;;;;;35.22;67.69;98685.94;6238011;28;96702;-68
2023/10/03 13:02:59;;;;;;;;;5.50;5.00;;;;;34.87;65.82;98670.47;6239305;28;96591;-69
2023/10/03 13:06:03;;;;;;;;;7.00;6.00;;;;;34.75;68.42;98676.34;6220750;28;96715;-69
2023/10/03 13:09:07;;;;;;;;;7.00;6.00;;;;;34.50;71.87;98658.53;6227995;28;96412;-68
2023/10/03 13:12:11;;;;;;;;;9.00;8.00;;;;;34.39;72.60;98663.19;6221269;28;96382;-69
2023/10/03 13:15:17;;;;;;;;;9.40;5.40;;;;;34.20;73.50;98659.44;6219592;28;96688;-69
2023/10/03 13:18:23;;;;;;;;;6.00;6.00;;;;;33.76;77.03;98666.88;6239498;28;96692;-68
2023/10/03 13:21:27;;;;;;;;;8.00;6.00;;;;;33.82;77.79;98665.34;6238827;28;97072;-68
2023/10/03 13:24:33;;;;;;;;;7.60;7.00;;;;;33.65;76.69;98665.91;6238125;28;96543;-69
2023/10/03 13:27:36;;;;;;;;;7.25;6.25;;;;;33.45;80.68;98659.66;6237486;28;96350;-68
2023/10/03 13:30:40;;;;;;;;;6.00;6.00;;;;;33.51;80.83;98652.56;6236701;27;96686;-68
2023/10/03 13:33:45;;;;;;;;;9.00;8.40;;;;;33.40;81.45;98646.81;6218542;28;96874;-67
2023/10/03 13:36:49;;;;;;;;;9.00;9.00;;;;;33.26;80.90;98659.78;6239058;28;96497;-68
2023/10/03 13:39:52;;;;;;;;;7.40;7.00;;;;;33.02;82.35;98639.47;6217191;28;96668;-67
2023/10/03 13:42:59;;;;;;;;;7.20;6.80;;;;;33.09;82.52;98644.31;6215157;28;99565;-69
2023/10/03 13:46:03;;;;;;;;;10.00;8.40;;;;;33.13;83.92;98642.41;6237033;27;98492;-68
2023/10/03 13:49:08;;;;;;;;;12.00;7.40;;;;;33.15;83.54;98640.03;6217560;27;96572;-68
2023/10/03 13:52:12;;;;;;;;;9.00;8.00;;;;;33.12;86.08;98640.00;6238264;27;96706;-67
2023/10/03 13:55:18;;;;;;;;;8.60;8.60;;;;;32.96;84.45;98640.16;6217290;28;96762;-68
2023/10/03 13:58:21;;;;;;;;;9.80;9.00;;;;;32.82;84.51;98628.75;6246647;27;96323;-67
2023/10/03 14:01:25;;;;;;;;;11.00;9.00;;;;;32.65;86.31;98636.47;6235928;27;96939;-66
2023/10/03 14:04:30;;;;;;;;;12.60;11.00;;;;;32.27;87.91;98652.50;6239185;27;96319;-69
2023/10/03 14:07:33;;;;;;;;;9.00;7.60;;;;;31.96;87.93;98642.34;6216639;27;97696;-67
2023/10/03 14:10:43;;;;;;;;;9.00;8.00;;;;;31.75;90.18;98637.16;6231639;27;97589;-67
2023/10/03 14:13:46;;;;;;;;;9.80;7.80;;;;;31.47;92.38;98639.34;6237792;27;96426;-67
2023/10/03 14:16:49;;;;;;;;;11.60;9.60;;;;;31.26;93.33;98628.53;6234268;27;97614;-68
2023/10/03 14:19:54;;;;;;;;;8.00;8.00;;;;;31.05;94.11;98630.81;6247737;27;96892;-68
2023/10/03 14:22:57;;;;;;;;;9.00;8.33;;;;;30.94;95.44;98631.34;6240512;27;96417;-68
2023/10/03 14:26:00;;;;;;;;;9.00;8.40;;;;;30.77;96.53;98620.63;6231464;27;96579;-63